sensor_id;sensor_type;location;lat;lon;timestamp;pressure;altitude;pressure_sealevel;temperature;humidity
65376;BME280;51976;47.332;9.404;2023-05-23T00:00:13;92646.25;;;15.82;74.85
65376;BME280;51976;47.332;9.404;2023-05-23T00:02:39;92642.09;;;15.68;75.72
65376;BME280;51976;47.332;9.404;2023-05-23T00:05:05;92641.88;;;15.55;75.97
65376;BME280;51976;47.332;9.404;2023-05-23T00:07:31;92606.06;;;15.45;75.48
65376;BME280;51976;47.332;9.404;2023-05-23T00:09:56;92639.03;;;15.61;75.26
65376;BME280;51976;47.332;9.404;2023-05-23T00:12:22;92623.47;;;15.27;75.39
65376;BME280;51976;47.332;9.404;2023-05-23T00:14:47;92632.16;;;15.06;76.39
65376;BME280;51976;47.332;9.404;2023-05-23T00:17:13;92631.72;;;15.04;76.82
65376;BME280;51976;47.332;9.404;2023-05-23T00:19:41;92637.06;;;14.87;77.06
65376;BME280;51976;47.332;9.404;2023-05-23T00:22:10;92577.88;;;14.49;77.72
65376;BME280;51976;47.332;9.404;2023-05-23T00:24:36;92610.13;;;15.08;76.57
65376;BME280;51976;47.332;9.404;2023-05-23T00:27:01;92626.72;;;14.98;77.95
65376;BME280;51976;47.332;9.404;2023-05-23T00:29:26;92631.63;;;14.87;78.54
65376;BME280;51976;47.332;9.404;2023-05-23T00:31:52;92635.88;;;15.19;77.61
65376;BME280;51976;47.332;9.404;2023-05-23T00:34:17;92637.03;;;15.35;77.26
65376;BME280;51976;47.332;9.404;2023-05-23T00:36:43;92636.34;;;15.12;77.46
65376;BME280;51976;47.332;9.404;2023-05-23T00:39:11;92617.38;;;14.73;78.50
65376;BME280;51976;47.332;9.404;2023-05-23T00:41:43;92587.38;;;14.78;78.01
65376;BME280;51976;47.332;9.404;2023-05-23T00:44:09;92638.56;;;15.10;77.74
65376;BME280;51976;47.332;9.404;2023-05-23T00:46:35;92627.25;;;15.17;77.89
65376;BME280;51976;47.332;9.404;2023-05-23T00:49:00;92634.16;;;15.23;77.59
65376;BME280;51976;47.332;9.404;2023-05-23T00:51:26;92588.91;;;15.01;76.89
65376;BME280;51976;47.332;9.404;2023-05-23T00:53:52;92617.00;;;15.05;76.68
65376;BME280;51976;47.332;9.404;2023-05-23T00:56:18;92622.28;;;15.10;77.04
65376;BME280;51976;47.332;9.404;2023-05-23T00:58:44;92628.09;;;15.26;76.52
65376;BME280;51976;47.332;9.404;2023-05-23T01:01:09;92606.47;;;15.12;75.99
65376;BME280;51976;47.332;9.404;2023-05-23T01:03:35;92627.59;;;15.33;75.77
65376;BME280;51976;47.332;9.404;2023-05-23T01:06:00;92627.94;;;15.40;75.72
65376;BME280;51976;47.332;9.404;2023-05-23T01:08:27;92609.22;;;15.21;75.59
65376;BME280;51976;47.332;9.404;2023-05-23T01:10:53;92638.81;;;15.40;75.42
65376;BME280;51976;47.332;9.404;2023-05-23T01:13:29;92621.81;;;15.17;75.45
65376;BME280;51976;47.332;9.404;2023-05-23T01:16:06;92634.88;;;15.06;76.39
65376;BME280;51976;47.332;9.404;2023-05-23T01:18:36;92635.22;;;15.13;76.07
65376;BME280;51976;47.332;9.404;2023-05-23T01:21:09;92639.28;;;15.24;75.70
65376;BME280;51976;47.332;9.404;2023-05-23T01:24:02;92642.47;;;15.27;75.36
65376;BME280;51976;47.332;9.404;2023-05-23T01:26:38;92640.97;;;15.03;76.19
65376;BME280;51976;47.332;9.404;2023-05-23T01:29:16;92640.50;;;15.10;75.73
65376;BME280;51976;47.332;9.404;2023-05-23T01:31:45;92629.97;;;15.17;75.41
65376;BME280;51976;47.332;9.404;2023-05-23T01:34:12;92558.94;;;14.67;75.64
65376;BME280;51976;47.332;9.404;2023-05-23T01:36:41;92630.78;;;15.17;75.82
65376;BME280;51976;47.332;9.404;2023-05-23T01:39:07;92628.50;;;15.02;76.26
65376;BME280;51976;47.332;9.404;2023-05-23T01:41:33;92636.47;;;15.07;75.67
65376;BME280;51976;47.332;9.404;2023-05-23T01:43:58;92638.78;;;15.22;75.92
65376;BME280;51976;47.332;9.404;2023-05-23T01:46:26;92639.28;;;15.33;75.31
65376;BME280;51976;47.332;9.404;2023-05-23T01:48:53;92620.28;;;14.76;76.89
65376;BME280;51976;47.332;9.404;2023-05-23T01:51:21;92635.41;;;14.77;77.46
65376;BME280;51976;47.332;9.404;2023-05-23T01:53:46;92643.28;;;14.87;76.69
65376;BME280;51976;47.332;9.404;2023-05-23T01:56:12;92635.94;;;14.88;76.38
65376;BME280;51976;47.332;9.404;2023-05-23T01:58:38;92638.03;;;14.91;76.05
65376;BME280;51976;47.332;9.404;2023-05-23T02:01:03;92634.47;;;14.82;76.44
65376;BME280;51976;47.332;9.404;2023-05-23T02:03:29;92632.13;;;14.89;76.78
65376;BME280;51976;47.332;9.404;2023-05-23T02:05:54;92636.13;;;14.61;78.01
65376;BME280;51976;47.332;9.404;2023-05-23T02:08:20;92643.19;;;14.39;78.56
65376;BME280;51976;47.332;9.404;2023-05-23T02:10:45;92582.78;;;13.94;79.22
65376;BME280;51976;47.332;9.404;2023-05-23T02:13:11;92632.72;;;14.46;78.84
65376;BME280;51976;47.332;9.404;2023-05-23T02:15:36;92603.25;;;14.31;78.25
65376;BME280;51976;47.332;9.404;2023-05-23T02:18:02;92638.16;;;14.46;78.43
65376;BME280;51976;47.332;9.404;2023-05-23T02:20:28;92599.78;;;14.39;78.36
65376;BME280;51976;47.332;9.404;2023-05-23T02:22:53;92637.97;;;14.74;77.48
65376;BME280;51976;47.332;9.404;2023-05-23T02:25:19;92639.09;;;14.73;77.59
65376;BME280;51976;47.332;9.404;2023-05-23T02:27:44;92615.72;;;14.63;77.28
65376;BME280;51976;47.332;9.404;2023-05-23T02:30:10;92632.13;;;14.89;77.14
65376;BME280;51976;47.332;9.404;2023-05-23T02:32:35;92633.84;;;14.85;77.13
65376;BME280;51976;47.332;9.404;2023-05-23T02:35:02;92595.88;;;14.45;77.55
65376;BME280;51976;47.332;9.404;2023-05-23T02:37:27;92634.16;;;14.75;77.56
65376;BME280;51976;47.332;9.404;2023-05-23T02:39:52;92638.31;;;14.81;77.06
65376;BME280;51976;47.332;9.404;2023-05-23T02:42:18;92642.97;;;14.89;76.72
65376;BME280;51976;47.332;9.404;2023-05-23T02:44:43;92640.31;;;14.98;75.87
65376;BME280;51976;47.332;9.404;2023-05-23T02:47:09;92637.41;;;14.94;76.11
65376;BME280;51976;47.332;9.404;2023-05-23T02:49:34;92638.03;;;14.91;76.09
65376;BME280;51976;47.332;9.404;2023-05-23T02:52:00;92638.97;;;14.86;76.46
65376;BME280;51976;47.332;9.404;2023-05-23T02:54:25;92636.56;;;14.54;77.25
65376;BME280;51976;47.332;9.404;2023-05-23T02:56:51;92637.00;;;14.25;78.85
65376;BME280;51976;47.332;9.404;2023-05-23T02:59:17;92602.69;;;13.89;79.27
65376;BME280;51976;47.332;9.404;2023-05-23T03:01:43;92603.34;;;13.95;78.76
65376;BME280;51976;47.332;9.404;2023-05-23T03:04:08;92650.56;;;14.25;78.23
65376;BME280;51976;47.332;9.404;2023-05-23T03:06:34;92593.44;;;13.91;78.17
65376;BME280;51976;47.332;9.404;2023-05-23T03:09:00;92657.13;;;14.46;77.46
65376;BME280;51976;47.332;9.404;2023-05-23T03:11:26;92656.69;;;14.53;77.26
65376;BME280;51976;47.332;9.404;2023-05-23T03:13:52;92643.78;;;14.59;76.49
65376;BME280;51976;47.332;9.404;2023-05-23T03:16:17;92631.22;;;14.40;76.87
65376;BME280;51976;47.332;9.404;2023-05-23T03:18:42;92656.72;;;14.62;76.75
65376;BME280;51976;47.332;9.404;2023-05-23T03:21:08;92658.56;;;14.21;78.32
65376;BME280;51976;47.332;9.404;2023-05-23T03:23:34;92664.13;;;13.80;80.26
65376;BME280;51976;47.332;9.404;2023-05-23T03:26:01;92663.44;;;13.97;79.94
65376;BME280;51976;47.332;9.404;2023-05-23T03:28:27;92665.50;;;13.92;79.85
65376;BME280;51976;47.332;9.404;2023-05-23T03:30:53;92667.25;;;13.74;80.32
65376;BME280;51976;47.332;9.404;2023-05-23T03:33:18;92669.94;;;13.87;79.77
65376;BME280;51976;47.332;9.404;2023-05-23T03:35:43;92668.44;;;14.04;78.90
65376;BME280;51976;47.332;9.404;2023-05-23T03:38:09;92668.78;;;13.66;79.25
65376;BME280;51976;47.332;9.404;2023-05-23T03:40:34;92659.91;;;13.74;79.07
65376;BME280;51976;47.332;9.404;2023-05-23T03:43:05;92677.94;;;13.93;78.50
65376;BME280;51976;47.332;9.404;2023-05-23T03:45:31;92662.66;;;13.97;77.94
65376;BME280;51976;47.332;9.404;2023-05-23T03:47:57;92651.56;;;14.07;77.00
65376;BME280;51976;47.332;9.404;2023-05-23T03:50:23;92673.94;;;14.35;76.73
65376;BME280;51976;47.332;9.404;2023-05-23T03:52:48;92670.50;;;14.43;76.49
65376;BME280;51976;47.332;9.404;2023-05-23T03:55:14;92681.50;;;14.24;77.07
65376;BME280;51976;47.332;9.404;2023-05-23T03:57:39;92683.38;;;14.37;76.79
65376;BME280;51976;47.332;9.404;2023-05-23T04:00:05;92677.94;;;14.37;76.54
65376;BME280;51976;47.332;9.404;2023-05-23T04:02:36;92678.25;;;14.36;76.63
65376;BME280;51976;47.332;9.404;2023-05-23T04:05:01;92677.31;;;14.40;76.51
65376;BME280;51976;47.332;9.404;2023-05-23T04:07:27;92663.38;;;14.47;76.68
65376;BME280;51976;47.332;9.404;2023-05-23T04:09:52;92670.25;;;14.53;76.44
65376;BME280;51976;47.332;9.404;2023-05-23T04:12:19;92654.66;;;14.36;75.91
65376;BME280;51976;47.332;9.404;2023-05-23T04:14:46;92660.50;;;14.52;75.53
65376;BME280;51976;47.332;9.404;2023-05-23T04:17:12;92663.28;;;14.61;75.30
65376;BME280;51976;47.332;9.404;2023-05-23T04:19:38;92649.69;;;14.61;74.82
65376;BME280;51976;47.332;9.404;2023-05-23T04:22:04;92668.94;;;14.73;75.03
65376;BME280;51976;47.332;9.404;2023-05-23T04:24:29;92656.28;;;14.68;74.60
65376;BME280;51976;47.332;9.404;2023-05-23T04:26:55;92632.94;;;14.36;75.13
65376;BME280;51976;47.332;9.404;2023-05-23T04:29:20;92672.56;;;14.68;74.97
65376;BME280;51976;47.332;9.404;2023-05-23T04:31:46;92644.59;;;14.59;74.67
65376;BME280;51976;47.332;9.404;2023-05-23T04:34:11;92677.91;;;14.82;74.42
65376;BME280;51976;47.332;9.404;2023-05-23T04:36:36;92679.53;;;14.61;75.08
65376;BME280;51976;47.332;9.404;2023-05-23T04:39:06;92670.78;;;14.64;75.13
65376;BME280;51976;47.332;9.404;2023-05-23T04:41:31;92686.97;;;14.46;75.34
65376;BME280;51976;47.332;9.404;2023-05-23T04:43:56;92685.47;;;14.18;75.96
65376;BME280;51976;47.332;9.404;2023-05-23T04:46:22;92691.31;;;14.11;76.91
65376;BME280;51976;47.332;9.404;2023-05-23T04:48:51;92685.97;;;14.42;75.99
65376;BME280;51976;47.332;9.404;2023-05-23T04:51:18;92683.94;;;14.48;75.82
65376;BME280;51976;47.332;9.404;2023-05-23T04:53:46;92687.94;;;14.50;76.26
65376;BME280;51976;47.332;9.404;2023-05-23T04:56:11;92681.44;;;14.38;76.30
65376;BME280;51976;47.332;9.404;2023-05-23T04:58:37;92692.41;;;14.33;76.95
65376;BME280;51976;47.332;9.404;2023-05-23T05:01:04;92679.06;;;14.14;77.39
65376;BME280;51976;47.332;9.404;2023-05-23T05:03:30;92693.03;;;14.30;77.24
65376;BME280;51976;47.332;9.404;2023-05-23T05:05:56;92687.22;;;14.22;77.43
65376;BME280;51976;47.332;9.404;2023-05-23T05:08:22;92685.09;;;14.11;78.06
65376;BME280;51976;47.332;9.404;2023-05-23T05:10:47;92647.19;;;13.97;77.76
65376;BME280;51976;47.332;9.404;2023-05-23T05:13:12;92687.06;;;14.19;77.81
65376;BME280;51976;47.332;9.404;2023-05-23T05:15:38;92688.97;;;14.18;78.00
65376;BME280;51976;47.332;9.404;2023-05-23T05:18:03;92693.00;;;14.43;77.29
65376;BME280;51976;47.332;9.404;2023-05-23T05:20:29;92671.00;;;14.45;76.60
65376;BME280;51976;47.332;9.404;2023-05-23T05:22:56;92690.00;;;14.45;76.74
65376;BME280;51976;47.332;9.404;2023-05-23T05:25:22;92687.81;;;14.55;76.71
65376;BME280;51976;47.332;9.404;2023-05-23T05:27:48;92680.41;;;14.70;75.90
65376;BME280;51976;47.332;9.404;2023-05-23T05:30:13;92674.53;;;14.76;75.45
65376;BME280;51976;47.332;9.404;2023-05-23T05:32:39;92691.06;;;14.97;74.87
65376;BME280;51976;47.332;9.404;2023-05-23T05:35:06;92684.41;;;15.03;75.22
65376;BME280;51976;47.332;9.404;2023-05-23T05:37:32;92669.19;;;14.94;75.05
65376;BME280;51976;47.332;9.404;2023-05-23T05:39:58;92684.72;;;15.10;75.00
65376;BME280;51976;47.332;9.404;2023-05-23T05:42:30;92667.13;;;14.99;74.58
65376;BME280;51976;47.332;9.404;2023-05-23T05:44:55;92686.19;;;15.16;74.29
65376;BME280;51976;47.332;9.404;2023-05-23T05:47:21;92642.00;;;14.85;74.65
65376;BME280;51976;47.332;9.404;2023-05-23T05:49:49;92687.34;;;15.24;74.45
65376;BME280;51976;47.332;9.404;2023-05-23T05:52:14;92695.84;;;15.31;74.56
65376;BME280;51976;47.332;9.404;2023-05-23T05:54:41;92685.94;;;15.35;74.35
65376;BME280;51976;47.332;9.404;2023-05-23T05:57:06;92691.03;;;15.37;74.38
65376;BME280;51976;47.332;9.404;2023-05-23T05:59:32;92689.63;;;15.39;74.76
65376;BME280;51976;47.332;9.404;2023-05-23T06:01:58;92687.78;;;15.57;74.51
65376;BME280;51976;47.332;9.404;2023-05-23T06:04:24;92701.53;;;15.61;74.57
65376;BME280;51976;47.332;9.404;2023-05-23T06:06:49;92691.66;;;15.73;73.65
65376;BME280;51976;47.332;9.404;2023-05-23T06:09:16;92681.25;;;15.75;73.36
65376;BME280;51976;47.332;9.404;2023-05-23T06:11:41;92681.25;;;15.75;73.70
65376;BME280;51976;47.332;9.404;2023-05-23T06:14:07;92688.59;;;15.57;74.98
65376;BME280;51976;47.332;9.404;2023-05-23T06:16:32;92672.91;;;15.63;75.36
65376;BME280;51976;47.332;9.404;2023-05-23T06:19:00;92685.25;;;15.69;75.58
65376;BME280;51976;47.332;9.404;2023-05-23T06:21:31;92689.13;;;15.85;74.84
65376;BME280;51976;47.332;9.404;2023-05-23T06:23:58;92701.38;;;15.66;75.90
65376;BME280;51976;47.332;9.404;2023-05-23T06:26:25;92679.94;;;15.55;76.49
65376;BME280;51976;47.332;9.404;2023-05-23T06:28:52;92700.44;;;15.70;76.06
65376;BME280;51976;47.332;9.404;2023-05-23T06:31:19;92699.59;;;15.61;76.96
65376;BME280;51976;47.332;9.404;2023-05-23T06:33:46;92702.03;;;15.71;76.75
65376;BME280;51976;47.332;9.404;2023-05-23T06:36:13;92697.91;;;15.82;76.09
65376;BME280;51976;47.332;9.404;2023-05-23T06:38:40;92692.78;;;15.89;75.74
65376;BME280;51976;47.332;9.404;2023-05-23T06:41:05;92694.06;;;16.01;75.49
65376;BME280;51976;47.332;9.404;2023-05-23T06:43:31;92703.03;;;16.01;76.20
65376;BME280;51976;47.332;9.404;2023-05-23T06:45:57;92704.13;;;15.91;76.24
65376;BME280;51976;47.332;9.404;2023-05-23T06:48:23;92683.69;;;15.85;76.07
65376;BME280;51976;47.332;9.404;2023-05-23T06:50:51;92702.84;;;15.89;76.16
65376;BME280;51976;47.332;9.404;2023-05-23T06:53:17;92696.94;;;15.96;76.83
65376;BME280;51976;47.332;9.404;2023-05-23T06:55:42;92668.66;;;15.79;76.19
65376;BME280;51976;47.332;9.404;2023-05-23T06:58:08;92699.03;;;15.99;75.86
65376;BME280;51976;47.332;9.404;2023-05-23T07:00:33;92706.53;;;15.76;77.05
65376;BME280;51976;47.332;9.404;2023-05-23T07:02:59;92701.53;;;15.69;77.59
65376;BME280;51976;47.332;9.404;2023-05-23T07:05:28;92709.03;;;15.64;78.01
65376;BME280;51976;47.332;9.404;2023-05-23T07:07:55;92704.66;;;15.45;77.65
65376;BME280;51976;47.332;9.404;2023-05-23T07:10:22;92712.72;;;15.59;77.97
65376;BME280;51976;47.332;9.404;2023-05-23T07:12:48;92718.00;;;15.64;78.10
65376;BME280;51976;47.332;9.404;2023-05-23T07:15:14;92714.03;;;15.70;78.23
65376;BME280;51976;47.332;9.404;2023-05-23T07:17:40;92711.16;;;15.75;77.96
65376;BME280;51976;47.332;9.404;2023-05-23T07:20:07;92709.22;;;15.67;77.42
65376;BME280;51976;47.332;9.404;2023-05-23T07:22:33;92717.69;;;15.66;77.65
65376;BME280;51976;47.332;9.404;2023-05-23T07:25:00;92698.97;;;15.64;77.36
65376;BME280;51976;47.332;9.404;2023-05-23T07:27:25;92716.59;;;15.75;77.42
65376;BME280;51976;47.332;9.404;2023-05-23T07:29:51;92721.25;;;15.83;77.03
65376;BME280;51976;47.332;9.404;2023-05-23T07:32:17;92711.81;;;15.89;77.35
65376;BME280;51976;47.332;9.404;2023-05-23T07:34:42;92719.19;;;15.98;76.72
65376;BME280;51976;47.332;9.404;2023-05-23T07:37:07;92705.25;;;15.90;76.32
65376;BME280;51976;47.332;9.404;2023-05-23T07:39:33;92717.44;;;16.02;76.88
65376;BME280;51976;47.332;9.404;2023-05-23T07:41:58;92717.75;;;16.17;76.39
65376;BME280;51976;47.332;9.404;2023-05-23T07:44:24;92715.84;;;16.27;76.11
65376;BME280;51976;47.332;9.404;2023-05-23T07:46:50;92723.84;;;16.40;74.57
65376;BME280;51976;47.332;9.404;2023-05-23T07:49:16;92722.41;;;16.34;74.84
65376;BME280;51976;47.332;9.404;2023-05-23T07:51:41;92711.38;;;16.39;74.63
65376;BME280;51976;47.332;9.404;2023-05-23T07:54:07;92704.50;;;16.33;75.08
65376;BME280;51976;47.332;9.404;2023-05-23T07:56:32;92710.41;;;16.27;75.59
65376;BME280;51976;47.332;9.404;2023-05-23T07:58:57;92726.72;;;16.35;75.31
65376;BME280;51976;47.332;9.404;2023-05-23T08:01:23;92695.53;;;16.24;75.36
65376;BME280;51976;47.332;9.404;2023-05-23T08:03:50;92729.75;;;16.42;75.49
65376;BME280;51976;47.332;9.404;2023-05-23T08:06:15;92726.25;;;16.33;76.40
65376;BME280;51976;47.332;9.404;2023-05-23T08:08:41;92725.44;;;16.50;75.48
65376;BME280;51976;47.332;9.404;2023-05-23T08:11:08;92687.69;;;16.31;75.41
65376;BME280;51976;47.332;9.404;2023-05-23T08:13:33;92727.50;;;16.62;74.93
65376;BME280;51976;47.332;9.404;2023-05-23T08:15:59;92726.56;;;16.40;75.82
65376;BME280;51976;47.332;9.404;2023-05-23T08:18:25;92729.28;;;16.57;75.01
65376;BME280;51976;47.332;9.404;2023-05-23T08:20:50;92710.69;;;16.77;74.16
65376;BME280;51976;47.332;9.404;2023-05-23T08:23:16;92714.84;;;16.83;73.50
65376;BME280;51976;47.332;9.404;2023-05-23T08:25:43;92709.91;;;16.76;73.23
65376;BME280;51976;47.332;9.404;2023-05-23T08:28:09;92701.09;;;16.53;73.69
65376;BME280;51976;47.332;9.404;2023-05-23T08:30:34;92732.00;;;16.75;73.98
65376;BME280;51976;47.332;9.404;2023-05-23T08:33:00;92719.19;;;16.49;75.57
65376;BME280;51976;47.332;9.404;2023-05-23T08:35:29;92745.28;;;16.50;75.84
65376;BME280;51976;47.332;9.404;2023-05-23T08:38:00;92739.03;;;16.41;76.20
65376;BME280;51976;47.332;9.404;2023-05-23T08:40:26;92745.44;;;16.45;76.42
65376;BME280;51976;47.332;9.404;2023-05-23T08:42:54;92719.69;;;16.25;76.55
65376;BME280;51976;47.332;9.404;2023-05-23T08:45:20;92740.00;;;16.37;75.98
65376;BME280;51976;47.332;9.404;2023-05-23T08:47:46;92747.84;;;16.38;76.24
65376;BME280;51976;47.332;9.404;2023-05-23T08:50:16;92744.47;;;16.41;76.17
65376;BME280;51976;47.332;9.404;2023-05-23T08:52:55;92754.72;;;16.62;75.52
65376;BME280;51976;47.332;9.404;2023-05-23T08:55:23;92748.31;;;16.75;75.35
65376;BME280;51976;47.332;9.404;2023-05-23T08:57:52;92752.31;;;16.77;74.95
65376;BME280;51976;47.332;9.404;2023-05-23T09:00:19;92747.63;;;17.04;74.02
65376;BME280;51976;47.332;9.404;2023-05-23T09:02:47;92742.13;;;17.30;73.76
65376;BME280;51976;47.332;9.404;2023-05-23T09:05:14;92707.66;;;16.87;73.05
65376;BME280;51976;47.332;9.404;2023-05-23T09:07:40;92745.94;;;17.37;72.34
65376;BME280;51976;47.332;9.404;2023-05-23T09:10:08;92745.78;;;17.34;72.37
65376;BME280;51976;47.332;9.404;2023-05-23T09:12:34;92745.78;;;17.34;72.38
65376;BME280;51976;47.332;9.404;2023-05-23T09:15:05;92746.03;;;17.11;73.07
65376;BME280;51976;47.332;9.404;2023-05-23T09:17:33;92716.31;;;16.54;74.44
65376;BME280;51976;47.332;9.404;2023-05-23T09:19:59;92723.50;;;16.59;74.37
65376;BME280;51976;47.332;9.404;2023-05-23T09:22:26;92757.59;;;16.91;74.85
65376;BME280;51976;47.332;9.404;2023-05-23T09:24:54;92728.31;;;16.62;75.10
65376;BME280;51976;47.332;9.404;2023-05-23T09:27:20;92759.53;;;16.82;75.40
65376;BME280;51976;47.332;9.404;2023-05-23T09:29:46;92739.53;;;16.69;74.63
65376;BME280;51976;47.332;9.404;2023-05-23T09:32:14;92739.53;;;16.69;74.33
65376;BME280;51976;47.332;9.404;2023-05-23T09:34:55;92737.94;;;16.68;74.06
65376;BME280;51976;47.332;9.404;2023-05-23T09:37:24;92726.72;;;16.61;74.64
65376;BME280;51976;47.332;9.404;2023-05-23T09:39:53;92764.94;;;16.99;75.17
65376;BME280;51976;47.332;9.404;2023-05-23T09:42:20;92756.50;;;16.92;74.44
65376;BME280;51976;47.332;9.404;2023-05-23T09:44:49;92756.59;;;17.04;74.38
65376;BME280;51976;47.332;9.404;2023-05-23T09:47:15;92756.91;;;17.11;74.68
65376;BME280;51976;47.332;9.404;2023-05-23T09:49:45;92715.81;;;16.96;73.36
65376;BME280;51976;47.332;9.404;2023-05-23T09:52:12;92760.22;;;17.25;73.14
65376;BME280;51976;47.332;9.404;2023-05-23T09:54:39;92741.97;;;17.26;71.79
65376;BME280;51976;47.332;9.404;2023-05-23T09:57:10;92757.63;;;17.46;71.20
65376;BME280;51976;47.332;9.404;2023-05-23T09:59:40;92747.44;;;17.64;70.29
65376;BME280;51976;47.332;9.404;2023-05-23T10:02:07;92746.97;;;17.53;70.48
65376;BME280;51976;47.332;9.404;2023-05-23T10:04:36;92760.22;;;17.34;70.97
65376;BME280;51976;47.332;9.404;2023-05-23T10:07:12;92735.25;;;17.62;69.46
65376;BME280;51976;47.332;9.404;2023-05-23T10:09:44;92747.53;;;18.06;69.28
65376;BME280;51976;47.332;9.404;2023-05-23T10:12:35;92742.84;;;18.15;68.66
65376;BME280;51976;47.332;9.404;2023-05-23T10:15:04;92738.16;;;17.65;69.28
65376;BME280;51976;47.332;9.404;2023-05-23T10:17:38;92739.56;;;17.71;68.63
65376;BME280;51976;47.332;9.404;2023-05-23T10:20:14;92743.72;;;17.77;67.76
65376;BME280;51976;47.332;9.404;2023-05-23T10:22:41;92743.25;;;17.75;67.41
65376;BME280;51976;47.332;9.404;2023-05-23T10:25:07;92733.31;;;17.62;68.35
65376;BME280;51976;47.332;9.404;2023-05-23T10:27:37;92747.56;;;17.76;68.75
65376;BME280;51976;47.332;9.404;2023-05-23T10:30:05;92758.97;;;17.61;70.41
65376;BME280;51976;47.332;9.404;2023-05-23T10:32:31;92760.59;;;17.62;72.27
65376;BME280;51976;47.332;9.404;2023-05-23T10:35:20;92740.78;;;17.44;73.21
65376;BME280;51976;47.332;9.404;2023-05-23T10:37:54;92723.13;;;17.04;74.68
65376;BME280;51976;47.332;9.404;2023-05-23T10:40:30;92750.34;;;17.04;75.41
65376;BME280;51976;47.332;9.404;2023-05-23T10:43:15;92755.94;;;17.16;76.96
65376;BME280;51976;47.332;9.404;2023-05-23T10:45:43;92756.75;;;17.16;76.41
65376;BME280;51976;47.332;9.404;2023-05-23T10:48:20;92707.78;;;16.90;75.41
65376;BME280;51976;47.332;9.404;2023-05-23T10:51:00;92754.31;;;17.23;75.36
65376;BME280;51976;47.332;9.404;2023-05-23T10:53:28;92751.16;;;17.04;75.07
65376;BME280;51976;47.332;9.404;2023-05-23T10:55:55;92757.28;;;16.92;76.24
65376;BME280;51976;47.332;9.404;2023-05-23T10:58:21;92742.06;;;16.91;76.58
65376;BME280;51976;47.332;9.404;2023-05-23T11:01:00;92712.13;;;16.74;75.99
65376;BME280;51976;47.332;9.404;2023-05-23T11:03:34;92734.50;;;16.97;75.99
65376;BME280;51976;47.332;9.404;2023-05-23T11:06:01;92722.84;;;16.88;75.75
65376;BME280;51976;47.332;9.404;2023-05-23T11:08:36;92739.47;;;17.04;75.82
65376;BME280;51976;47.332;9.404;2023-05-23T11:11:03;92731.34;;;16.95;77.01
65376;BME280;51976;47.332;9.404;2023-05-23T11:13:53;92740.00;;;16.80;75.75
65376;BME280;51976;47.332;9.404;2023-05-23T11:16:38;92720.47;;;16.78;76.50
65376;BME280;51976;47.332;9.404;2023-05-23T11:19:23;92722.00;;;16.96;78.46
65376;BME280;51976;47.332;9.404;2023-05-23T11:22:00;92729.34;;;17.13;77.71
65376;BME280;51976;47.332;9.404;2023-05-23T11:24:49;92714.31;;;16.98;78.35
65376;BME280;51976;47.332;9.404;2023-05-23T11:27:15;92731.13;;;17.09;76.45
65376;BME280;51976;47.332;9.404;2023-05-23T11:29:45;92710.13;;;17.09;74.73
65376;BME280;51976;47.332;9.404;2023-05-23T11:32:20;92732.28;;;17.46;75.01
65376;BME280;51976;47.332;9.404;2023-05-23T11:34:45;92691.66;;;17.23;75.07
65376;BME280;51976;47.332;9.404;2023-05-23T11:37:11;92721.00;;;17.56;74.00
65376;BME280;51976;47.332;9.404;2023-05-23T11:39:36;92721.09;;;17.39;73.72
65376;BME280;51976;47.332;9.404;2023-05-23T11:42:03;92724.75;;;17.43;73.50
65376;BME280;51976;47.332;9.404;2023-05-23T11:44:29;92720.69;;;17.66;72.57
65376;BME280;51976;47.332;9.404;2023-05-23T11:47:04;92709.78;;;17.57;71.87
65376;BME280;51976;47.332;9.404;2023-05-23T11:49:34;92699.97;;;17.27;72.29
65376;BME280;51976;47.332;9.404;2023-05-23T11:52:01;92714.50;;;17.40;74.63
65376;BME280;51976;47.332;9.404;2023-05-23T11:54:27;92708.03;;;17.53;73.67
65376;BME280;51976;47.332;9.404;2023-05-23T11:56:54;92683.63;;;17.27;71.67
65376;BME280;51976;47.332;9.404;2023-05-23T11:59:21;92678.19;;;17.56;71.06
65376;BME280;51976;47.332;9.404;2023-05-23T12:01:47;92653.53;;;17.82;69.58
65376;BME280;51976;47.332;9.404;2023-05-23T12:04:13;92685.81;;;18.43;69.13
65376;BME280;51976;47.332;9.404;2023-05-23T12:06:44;92658.88;;;18.74;68.05
65376;BME280;51976;47.332;9.404;2023-05-23T12:09:10;92667.84;;;19.08;65.79
65376;BME280;51976;47.332;9.404;2023-05-23T12:11:38;92674.53;;;18.98;66.69
65376;BME280;51976;47.332;9.404;2023-05-23T12:14:05;92674.38;;;19.27;66.20
65376;BME280;51976;47.332;9.404;2023-05-23T12:16:32;92667.34;;;19.51;64.50
65376;BME280;51976;47.332;9.404;2023-05-23T12:19:00;92672.94;;;19.54;63.00
65376;BME280;51976;47.332;9.404;2023-05-23T12:21:32;92674.94;;;19.33;61.62
65376;BME280;51976;47.332;9.404;2023-05-23T12:24:15;92672.22;;;19.45;60.39
65376;BME280;51976;47.332;9.404;2023-05-23T12:26:51;92671.50;;;19.24;61.68
65376;BME280;51976;47.332;9.404;2023-05-23T12:29:21;92642.88;;;18.97;61.63
65376;BME280;51976;47.332;9.404;2023-05-23T12:31:52;92665.50;;;19.91;59.77
65376;BME280;51976;47.332;9.404;2023-05-23T12:34:19;92667.91;;;19.81;60.31
65376;BME280;51976;47.332;9.404;2023-05-23T12:36:45;92655.38;;;20.32;58.74
65376;BME280;51976;47.332;9.404;2023-05-23T12:39:13;92660.00;;;20.56;58.59
65376;BME280;51976;47.332;9.404;2023-05-23T12:41:44;92649.72;;;20.81;56.75
65376;BME280;51976;47.332;9.404;2023-05-23T12:44:10;92641.06;;;20.23;59.10
65376;BME280;51976;47.332;9.404;2023-05-23T12:46:39;92652.88;;;19.63;61.83
65376;BME280;51976;47.332;9.404;2023-05-23T12:49:04;92649.19;;;19.22;63.75
65376;BME280;51976;47.332;9.404;2023-05-23T12:51:30;92600.53;;;18.79;64.60
65376;BME280;51976;47.332;9.404;2023-05-23T12:53:56;92652.41;;;18.79;65.40
65376;BME280;51976;47.332;9.404;2023-05-23T12:56:21;92646.66;;;18.39;66.59
65376;BME280;51976;47.332;9.404;2023-05-23T12:58:47;92640.31;;;18.14;67.24
65376;BME280;51976;47.332;9.404;2023-05-23T13:01:13;92665.38;;;18.07;68.86